createdAt,value
2018-09-04T00:01:02.795Z,77.30
2018-09-04T00:03:30.123Z,77.10
2018-09-04T00:05:57.450Z,77.10
2018-09-04T00:08:24.754Z,77.30
2018-09-04T00:10:52.295Z,77.20
2018-09-04T00:13:19.604Z,77.20
2018-09-04T00:15:46.892Z,77.10
2018-09-04T00:18:14.209Z,77.10
2018-09-04T00:20:41.552Z,77.10
2018-09-04T00:23:08.883Z,77.10
2018-09-04T00:25:36.180Z,77.70
2018-09-04T00:28:03.515Z,76.90
2018-09-04T00:30:30.827Z,76.70
2018-09-04T00:32:58.307Z,76.70
2018-09-04T00:35:25.611Z,76.70
2018-09-04T00:37:52.927Z,76.80
2018-09-04T00:40:20.212Z,77.60
2018-09-04T00:42:47.511Z,76.90
2018-09-04T00:45:14.854Z,77.00
2018-09-04T00:47:42.158Z,77.00
2018-09-04T00:50:09.473Z,77.10
2018-09-04T00:52:36.770Z,77.20
2018-09-04T00:55:04.104Z,77.20
2018-09-04T00:57:31.471Z,77.30
2018-09-04T00:59:58.956Z,77.20
2018-09-04T01:02:26.315Z,77.30
2018-09-04T01:04:53.662Z,77.50
2018-09-04T01:07:20.986Z,77.30
2018-09-04T01:09:48.316Z,77.10
2018-09-04T01:12:15.835Z,77.30
2018-09-04T01:14:43.135Z,77.10
2018-09-04T01:17:10.434Z,77.30
2018-09-04T01:19:37.755Z,77.20
2018-09-04T01:22:05.451Z,77.00
2018-09-04T01:24:33.158Z,77.10
2018-09-04T01:27:00.531Z,77.10
2018-09-04T01:29:27.900Z,77.00
2018-09-04T01:31:55.208Z,77.10
2018-09-04T01:34:22.523Z,76.80
2018-09-04T01:36:49.815Z,76.80
2018-09-04T01:39:17.166Z,76.50
2018-09-04T01:41:44.445Z,76.50
2018-09-04T01:44:11.785Z,77.20
2018-09-04T01:46:39.427Z,76.30
2018-09-04T01:49:06.739Z,76.30
2018-09-04T01:51:34.052Z,76.40
2018-09-04T01:54:01.373Z,76.30
2018-09-04T01:56:28.686Z,76.30
2018-09-04T01:58:56.001Z,76.20
2018-09-04T02:01:23.343Z,76.30
2018-09-04T02:03:51.095Z,76.20
2018-09-04T02:06:18.413Z,76.10
2018-09-04T02:08:45.725Z,76.20
2018-09-04T02:11:13.070Z,76.10
2018-09-04T02:13:40.385Z,75.90
2018-09-04T02:16:07.731Z,75.90
2018-09-04T02:18:35.047Z,76.00
2018-09-04T02:21:02.373Z,75.90
2018-09-04T02:23:29.702Z,75.70
2018-09-04T02:25:57.009Z,75.60
2018-09-04T02:28:24.305Z,75.50
2018-09-04T02:30:51.602Z,75.60
2018-09-04T02:33:18.963Z,75.40
2018-09-04T02:35:46.484Z,75.60
2018-09-04T02:38:13.789Z,75.90
2018-09-04T02:40:41.086Z,75.80
2018-09-04T02:43:08.404Z,76.60
2018-09-04T02:45:35.731Z,75.80
2018-09-04T02:48:03.114Z,76.00
2018-09-04T02:50:30.404Z,76.00
2018-09-04T02:52:57.712Z,76.10
2018-09-04T02:55:25.070Z,76.20
2018-09-04T02:57:52.371Z,76.50
2018-09-04T03:00:19.762Z,76.30
2018-09-04T03:02:47.048Z,76.10
2018-09-04T03:05:14.555Z,76.10
2018-09-04T03:07:42.071Z,76.40
2018-09-04T03:10:09.371Z,76.60
2018-09-04T03:12:36.823Z,76.60
2018-09-04T03:15:04.387Z,76.80
2018-09-04T03:17:31.710Z,77.20
2018-09-04T03:19:58.999Z,77.60
2018-09-04T03:22:26.333Z,77.70
2018-09-04T03:24:53.619Z,78.50
2018-09-04T03:27:20.911Z,78.50
2018-09-04T03:29:48.538Z,78.60
2018-09-04T03:32:15.822Z,78.70
2018-09-04T03:34:43.191Z,78.10
2018-09-04T03:37:10.587Z,79.00
2018-09-04T03:39:37.941Z,78.90
2018-09-04T03:42:05.275Z,78.90
2018-09-04T03:44:32.688Z,78.80
2018-09-04T03:46:59.919Z,78.80
2018-09-04T03:49:27.235Z,78.70
2018-09-04T03:51:54.543Z,79.00
2018-09-04T03:54:21.842Z,78.80
2018-09-04T03:56:49.128Z,78.60
2018-09-04T03:59:16.435Z,78.20
2018-09-04T04:01:44.407Z,78.40
2018-09-04T04:04:11.697Z,78.30
2018-09-04T04:06:39.040Z,78.30
2018-09-04T04:09:07.748Z,78.30
2018-09-04T04:11:35.364Z,78.40
2018-09-04T04:14:02.735Z,78.40
2018-09-04T04:16:30.108Z,78.30
2018-09-04T04:18:57.440Z,78.20
2018-09-04T04:21:24.744Z,78.20
2018-09-04T04:23:52.085Z,78.10
2018-09-04T04:26:19.568Z,78.10
2018-09-04T04:28:46.901Z,78.40
2018-09-04T04:31:14.199Z,78.40
2018-09-04T04:33:41.564Z,78.60
2018-09-04T04:36:08.869Z,78.50
2018-09-04T04:38:36.250Z,78.40
2018-09-04T04:41:03.544Z,78.50
2018-09-04T04:43:30.841Z,78.50
2018-09-04T04:45:58.151Z,78.60
2018-09-04T04:48:25.570Z,78.60
2018-09-04T04:50:52.855Z,78.80
2018-09-04T04:53:20.195Z,79.10
2018-09-04T04:55:47.734Z,79.10
2018-09-04T04:58:15.108Z,79.30
2018-09-04T05:00:42.416Z,79.20
2018-09-04T05:03:09.751Z,79.40
2018-09-04T05:05:37.110Z,79.50
2018-09-04T05:08:04.531Z,79.70
2018-09-04T05:10:31.962Z,79.80
2018-09-04T05:12:59.324Z,79.80
2018-09-04T05:15:26.627Z,79.90
2018-09-04T05:17:54.131Z,80.30
2018-09-04T05:20:24.717Z,80.10
2018-09-04T05:22:52.043Z,80.30
2018-09-04T05:25:19.609Z,80.40
2018-09-04T05:27:46.916Z,80.50
2018-09-04T05:30:14.296Z,80.70
2018-09-04T05:32:46.527Z,80.80
2018-09-04T05:35:14.706Z,81.00
2018-09-04T05:37:42.922Z,81.00
2018-09-04T05:40:10.680Z,81.20
2018-09-04T05:42:43.222Z,81.80
2018-09-04T05:45:10.669Z,82.00
2018-09-04T05:47:39.443Z,82.00
2018-09-04T05:50:07.857Z,82.10
2018-09-04T05:52:35.443Z,82.20
2018-09-04T05:55:02.943Z,82.20
2018-09-04T05:57:30.363Z,82.40
2018-09-04T05:59:57.743Z,82.50
2018-09-04T06:02:25.235Z,82.50
2018-09-04T06:04:52.575Z,82.40
2018-09-04T06:07:19.991Z,82.50
2018-09-04T06:09:47.386Z,82.50
2018-09-04T06:12:14.697Z,82.40
2018-09-04T06:14:42.012Z,82.30
2018-09-04T06:17:09.550Z,82.10
2018-09-04T06:19:36.885Z,82.20
2018-09-04T06:22:04.285Z,81.60
2018-09-04T06:24:31.687Z,82.20
2018-09-04T06:26:59.059Z,82.10
2018-09-04T06:29:26.453Z,82.00
2018-09-04T06:31:54.248Z,81.80
2018-09-04T06:34:21.939Z,81.60
2018-09-04T06:36:49.419Z,81.50
2018-09-04T06:39:16.697Z,81.20
2018-09-04T06:41:45.047Z,81.10
2018-09-04T06:44:12.372Z,81.00
2018-09-04T06:46:39.840Z,80.90
2018-09-04T06:49:07.378Z,80.80
2018-09-04T06:51:34.675Z,80.70
2018-09-04T06:54:02.036Z,80.70
2018-09-04T06:56:29.438Z,80.80
2018-09-04T06:58:56.792Z,80.70
2018-09-04T07:01:24.154Z,80.70
2018-09-04T07:03:51.482Z,80.70
2018-09-04T07:06:19.533Z,80.50
2018-09-04T07:08:46.902Z,80.50
2018-09-04T07:11:14.417Z,80.70
2018-09-04T07:13:41.755Z,80.70
2018-09-04T07:16:09.081Z,80.80
2018-09-04T07:18:36.405Z,80.80
2018-09-04T07:21:03.805Z,80.70
2018-09-04T07:23:31.174Z,80.50
2018-09-04T07:25:58.547Z,80.30
2018-09-04T07:28:25.851Z,80.20
2018-09-04T07:30:53.255Z,80.10
2018-09-04T07:33:20.655Z,80.00
2018-09-04T07:35:48.032Z,79.40
2018-09-04T07:38:16.116Z,79.50
2018-09-04T07:40:43.478Z,79.80
2018-09-04T07:43:11.051Z,79.70
2018-09-04T07:45:38.391Z,79.60
2018-09-04T07:48:05.763Z,79.50
2018-09-04T07:50:33.082Z,79.30
2018-09-04T07:53:00.400Z,78.80
2018-09-04T07:55:27.870Z,78.10
2018-09-04T07:57:55.249Z,77.60
2018-09-04T08:00:22.589Z,77.60
2018-09-04T08:02:49.914Z,77.80
2018-09-04T08:05:17.222Z,77.90
2018-09-04T08:07:44.640Z,77.50
2018-09-04T08:10:11.985Z,77.60
2018-09-04T08:12:40.037Z,77.10
2018-09-04T08:15:07.636Z,76.70
2018-09-04T08:17:42.383Z,76.40
2018-09-04T08:20:09.756Z,76.70
2018-09-04T08:22:37.215Z,75.50
2018-09-04T08:25:04.596Z,75.90
2018-09-04T08:27:31.950Z,77.00
2018-09-04T08:29:59.335Z,77.70
2018-09-04T08:32:26.691Z,77.90
2018-09-04T08:34:54.042Z,78.20
2018-09-04T08:37:21.354Z,78.10
2018-09-04T08:39:48.671Z,78.00
2018-09-04T08:42:16.004Z,77.40
2018-09-04T08:44:43.367Z,76.20
2018-09-04T08:47:10.734Z,76.00
2018-09-04T08:49:38.065Z,75.80
2018-09-04T08:52:05.439Z,75.80
2018-09-04T08:54:32.807Z,74.60
2018-09-04T08:57:00.222Z,74.00
2018-09-04T08:59:28.387Z,73.40
2018-09-04T09:01:55.719Z,73.60
2018-09-04T09:04:23.031Z,73.70
2018-09-04T09:06:50.383Z,73.90
2018-09-04T09:09:17.724Z,73.50
2018-09-04T09:11:45.052Z,73.60
2018-09-04T09:14:12.411Z,73.30
2018-09-04T09:16:39.999Z,73.40
2018-09-04T09:19:07.366Z,73.40
2018-09-04T09:21:34.711Z,73.70
2018-09-04T09:24:02.944Z,74.40
2018-09-04T09:26:30.641Z,74.80
2018-09-04T09:29:04.793Z,74.90
2018-09-04T09:31:32.181Z,74.70
2018-09-04T09:33:59.504Z,74.70
2018-09-04T09:36:26.873Z,74.30
2018-09-04T09:38:54.223Z,73.90
2018-09-04T09:41:21.711Z,73.50
2018-09-04T09:43:49.048Z,73.10
2018-09-04T09:46:16.539Z,72.40
2018-09-04T09:48:43.884Z,71.50
2018-09-04T09:51:12.057Z,70.40
2018-09-04T09:53:39.861Z,70.30
2018-09-04T09:56:08.104Z,69.30
2018-09-04T09:58:35.462Z,68.10
2018-09-04T10:01:09.548Z,68.40
2018-09-04T10:03:42.576Z,68.50
2018-09-04T10:06:10.144Z,68.50
2018-09-04T10:08:37.528Z,68.50
2018-09-04T10:11:05.119Z,67.70
2018-09-04T10:13:32.453Z,66.90
2018-09-04T10:15:59.775Z,66.50
2018-09-04T10:18:27.285Z,66.80
2018-09-04T10:20:54.888Z,66.80
2018-09-04T10:23:22.248Z,67.20
2018-09-04T10:25:49.716Z,67.10
2018-09-04T10:28:17.703Z,67.10
2018-09-04T10:30:45.091Z,66.10
2018-09-04T10:33:12.653Z,64.70
2018-09-04T10:35:40.031Z,63.90
2018-09-04T10:38:07.326Z,62.30
2018-09-04T10:40:38.240Z,62.20
2018-09-04T10:43:05.580Z,61.30
2018-09-04T10:45:38.528Z,61.40
2018-09-04T10:48:05.981Z,62.30
2018-09-04T10:50:33.321Z,63.40
2018-09-04T10:53:00.675Z,63.20
2018-09-04T10:55:27.982Z,63.50
2018-09-04T10:57:55.330Z,62.40
2018-09-04T11:00:22.711Z,62.70
2018-09-04T11:02:50.112Z,63.10
2018-09-04T11:05:17.519Z,62.90
2018-09-04T11:07:44.842Z,61.50
2018-09-04T11:10:12.188Z,61.20
2018-09-04T11:12:39.554Z,59.80
2018-09-04T11:15:06.918Z,60.40
2018-09-04T11:17:34.307Z,60.70
2018-09-04T11:20:02.580Z,60.70
2018-09-04T11:22:29.903Z,59.70
2018-09-04T11:24:57.308Z,60.20
2018-09-04T11:27:24.617Z,61.10
2018-09-04T11:29:52.624Z,61.00
2018-09-04T11:32:19.956Z,59.30
2018-09-04T11:34:47.301Z,59.90
2018-09-04T11:37:14.674Z,60.50
2018-09-04T11:39:42.036Z,59.70
2018-09-04T11:42:11.296Z,60.80
2018-09-04T11:44:38.623Z,58.40
2018-09-04T11:47:06.003Z,59.20
2018-09-04T11:49:33.361Z,60.00
2018-09-04T11:52:00.670Z,60.50
2018-09-04T11:54:27.986Z,60.50
2018-09-04T11:56:55.343Z,60.10
2018-09-04T11:59:22.775Z,59.50
2018-09-04T12:01:52.828Z,56.90
2018-09-04T12:04:20.133Z,57.00
2018-09-04T12:06:47.453Z,57.20
2018-09-04T12:09:14.776Z,57.20
2018-09-04T12:11:46.739Z,57.50
2018-09-04T12:14:14.114Z,57.30
2018-09-04T12:16:41.455Z,57.00
2018-09-04T12:19:08.851Z,56.60
2018-09-04T12:21:36.250Z,56.60
2018-09-04T12:24:03.543Z,56.00
2018-09-04T12:26:31.093Z,54.70
2018-09-04T12:28:58.503Z,54.60
2018-09-04T12:31:26.523Z,55.00
2018-09-04T12:33:53.913Z,53.50
2018-09-04T12:36:21.229Z,53.50
2018-09-04T12:38:48.627Z,53.20
2018-09-04T12:41:17.207Z,53.30
2018-09-04T12:43:44.525Z,52.30
2018-09-04T12:46:11.897Z,52.80
2018-09-04T12:48:43.913Z,52.60
2018-09-04T12:51:11.183Z,52.60
2018-09-04T12:53:38.699Z,51.60
2018-09-04T12:56:06.040Z,51.20
2018-09-04T12:58:33.402Z,51.40
2018-09-04T13:01:00.751Z,50.90
2018-09-04T13:03:29.028Z,51.70
2018-09-04T13:05:56.364Z,52.20
2018-09-04T13:08:26.364Z,52.30
2018-09-04T13:10:53.775Z,52.90
2018-09-04T13:13:22.035Z,52.70
2018-09-04T13:15:52.205Z,52.80
2018-09-04T13:18:19.820Z,53.50
2018-09-04T13:20:47.131Z,53.90
2018-09-04T13:23:14.597Z,52.40
2018-09-04T13:25:41.979Z,53.50
2018-09-04T13:28:09.359Z,53.80
2018-09-04T13:30:37.035Z,53.60
2018-09-04T13:33:04.973Z,53.40
2018-09-04T13:35:32.312Z,52.30
2018-09-04T13:37:59.643Z,52.40
2018-09-04T13:40:26.978Z,53.60
2018-09-04T13:42:54.424Z,51.80
2018-09-04T13:45:21.810Z,53.20
2018-09-04T13:47:49.242Z,52.00
2018-09-04T13:50:16.624Z,52.80
2018-09-04T13:52:44.123Z,53.30
2018-09-04T13:55:11.520Z,52.50
2018-09-04T13:57:38.820Z,52.70
2018-09-04T14:00:07.181Z,53.20
2018-09-04T14:02:34.663Z,53.40
2018-09-04T14:05:02.228Z,52.60
2018-09-04T14:07:29.587Z,52.60
2018-09-04T14:09:56.918Z,51.60
2018-09-04T14:12:24.272Z,49.30
2018-09-04T14:14:51.567Z,50.20
2018-09-04T14:17:19.806Z,51.00
2018-09-04T14:19:47.097Z,50.40
2018-09-04T14:22:16.101Z,50.40
2018-09-04T14:24:45.269Z,49.30
2018-09-04T14:27:12.559Z,47.70
2018-09-04T14:30:15.538Z,47.40
2018-09-04T14:32:07.188Z,47.90
2018-09-04T14:34:35.339Z,47.90
2018-09-04T14:37:02.917Z,47.50
2018-09-04T14:39:30.097Z,48.10
2018-09-04T14:41:58.393Z,47.90
2018-09-04T14:44:32.511Z,47.50
2018-09-04T14:46:59.891Z,47.60
2018-09-04T14:49:28.124Z,48.10
2018-09-04T14:51:55.493Z,49.30
2018-09-04T14:54:23.567Z,50.20
2018-09-04T14:56:52.023Z,50.90
2018-09-04T14:59:19.540Z,51.50
2018-09-04T15:01:46.841Z,51.90
2018-09-04T15:04:14.170Z,52.00
2018-09-04T15:06:41.511Z,52.30
2018-09-04T15:09:08.855Z,52.90
2018-09-04T15:11:36.181Z,53.30
2018-09-04T15:14:03.519Z,53.50
2018-09-04T15:16:30.929Z,53.70
2018-09-04T15:18:58.304Z,53.80
2018-09-04T15:21:25.609Z,53.70
2018-09-04T15:23:52.937Z,53.60
2018-09-04T15:26:20.282Z,53.80
2018-09-04T15:28:47.647Z,53.50
2018-09-04T15:31:14.952Z,53.30
2018-09-04T15:33:42.396Z,54.00
2018-09-04T15:36:09.735Z,53.80
2018-09-04T15:38:37.119Z,54.20
2018-09-04T15:41:04.430Z,54.30
2018-09-04T15:43:31.792Z,54.50
2018-09-04T15:45:59.175Z,54.80
2018-09-04T15:48:26.463Z,54.60
2018-09-04T15:50:54.137Z,54.70
2018-09-04T15:53:21.524Z,55.00
2018-09-04T15:55:48.926Z,55.30
2018-09-04T15:58:16.530Z,55.30
2018-09-04T16:00:43.836Z,55.70
2018-09-04T16:03:11.136Z,55.30
2018-09-04T16:05:38.774Z,55.20
2018-09-04T16:08:06.351Z,54.70
2018-09-04T16:10:33.696Z,53.60
2018-09-04T16:13:01.011Z,53.20
2018-09-04T16:15:28.375Z,53.60
2018-09-04T16:17:55.699Z,54.70
2018-09-04T16:20:22.999Z,54.70
2018-09-04T16:22:50.378Z,55.30
2018-09-04T16:25:17.717Z,55.60
2018-09-04T16:27:45.046Z,56.40
2018-09-04T16:30:12.827Z,57.10
2018-09-04T16:32:40.229Z,57.50
2018-09-04T16:35:07.663Z,58.00
2018-09-04T16:37:35.102Z,58.40
2018-09-04T16:40:03.335Z,59.30
2018-09-04T16:42:30.661Z,59.00
2018-09-04T16:44:57.981Z,59.30
2018-09-04T16:47:25.279Z,59.50
2018-09-04T16:49:52.579Z,59.70
2018-09-04T16:52:19.955Z,59.70
2018-09-04T16:54:47.290Z,60.70
2018-09-04T16:57:14.662Z,59.90
2018-09-04T16:59:42.004Z,60.10
2018-09-04T17:02:09.458Z,60.20
2018-09-04T17:04:36.808Z,60.50
2018-09-04T17:07:11.079Z,60.30
2018-09-04T17:09:38.433Z,60.40
2018-09-04T17:12:05.825Z,60.20
2018-09-04T17:14:33.416Z,60.20
2018-09-04T17:17:00.763Z,60.30
2018-09-04T17:19:28.080Z,60.20
2018-09-04T17:21:55.511Z,60.40
2018-09-04T17:24:22.837Z,60.20
2018-09-04T17:26:50.167Z,60.00
2018-09-04T17:29:17.486Z,60.00
2018-09-04T17:31:44.872Z,60.20
2018-09-04T17:34:12.247Z,60.20
2018-09-04T17:36:39.605Z,60.40
2018-09-04T17:39:07.264Z,60.60
2018-09-04T17:41:34.593Z,60.80
2018-09-04T17:44:01.966Z,60.80
2018-09-04T17:46:29.313Z,60.90
2018-09-04T17:48:56.917Z,61.00
2018-09-04T17:51:24.642Z,61.00
2018-09-04T17:53:52.819Z,61.30
2018-09-04T17:56:20.136Z,61.30
2018-09-04T17:58:47.490Z,61.40
2018-09-04T18:01:14.841Z,61.70
2018-09-04T18:03:42.159Z,62.10
2018-09-04T18:06:09.570Z,62.60
2018-09-04T18:08:36.940Z,62.40
2018-09-04T18:11:04.327Z,62.40
2018-09-04T18:13:31.659Z,62.60
2018-09-04T18:15:59.042Z,63.00
2018-09-04T18:18:26.360Z,62.80
2018-09-04T18:20:53.664Z,63.00
2018-09-04T18:23:21.002Z,63.10
2018-09-04T18:25:48.312Z,63.20
2018-09-04T18:28:15.662Z,63.40
2018-09-04T18:30:43.289Z,63.50
2018-09-04T18:33:10.587Z,63.70
2018-09-04T18:35:37.918Z,64.00
2018-09-04T18:38:05.370Z,64.00
2018-09-04T18:40:32.717Z,64.10
2018-09-04T18:43:00.072Z,64.60
2018-09-04T18:45:38.863Z,64.60
2018-09-04T18:48:06.309Z,64.60
2018-09-04T18:50:33.692Z,65.20
2018-09-04T18:53:01.052Z,64.60
2018-09-04T18:55:28.387Z,64.60
2018-09-04T18:57:56.212Z,64.70
2018-09-04T19:00:23.710Z,64.50
2018-09-04T19:02:51.025Z,64.50
2018-09-04T19:05:18.355Z,64.60
2018-09-04T19:07:45.881Z,64.70
2018-09-04T19:10:13.236Z,64.80
2018-09-04T19:12:40.606Z,64.40
2018-09-04T19:15:07.975Z,64.50
2018-09-04T19:17:35.389Z,64.40
2018-09-04T19:20:02.730Z,64.80
2018-09-04T19:22:30.073Z,64.00
2018-09-04T19:24:57.448Z,63.90
2018-09-04T19:27:24.803Z,64.00
2018-09-04T19:29:52.127Z,63.70
2018-09-04T19:32:19.526Z,63.70
2018-09-04T19:34:46.892Z,63.90
2018-09-04T19:37:14.431Z,63.90
2018-09-04T19:39:41.768Z,64.10
2018-09-04T19:42:09.245Z,64.00
2018-09-04T19:44:36.705Z,64.20
2018-09-04T19:47:04.024Z,64.80
2018-09-04T19:49:31.396Z,65.10
2018-09-04T19:51:58.772Z,65.00
2018-09-04T19:54:26.257Z,65.10
2018-09-04T19:56:53.635Z,65.40
2018-09-04T19:59:21.015Z,65.50
2018-09-04T20:01:48.432Z,65.50
2018-09-04T20:04:15.772Z,65.90
2018-09-04T20:06:43.147Z,66.90
2018-09-04T20:09:10.552Z,66.10
2018-09-04T20:11:37.899Z,66.70
2018-09-04T20:14:05.261Z,67.30
2018-09-04T20:16:32.855Z,68.10
2018-09-04T20:19:00.484Z,68.60
2018-09-04T20:21:28.448Z,68.60
2018-09-04T20:23:55.760Z,68.60
2018-09-04T20:26:23.275Z,68.80
2018-09-04T20:28:50.623Z,68.90
2018-09-04T20:31:17.931Z,68.50
2018-09-04T20:33:45.288Z,68.70
2018-09-04T20:36:12.689Z,68.80
2018-09-04T20:38:40.007Z,68.90
2018-09-04T20:41:07.403Z,68.70
2018-09-04T20:43:34.708Z,68.90
2018-09-04T20:46:02.017Z,69.20
2018-09-04T20:48:29.367Z,69.20
2018-09-04T20:50:56.728Z,69.30
2018-09-04T20:53:24.272Z,69.70
2018-09-04T20:55:52.135Z,70.20
2018-09-04T20:58:30.964Z,70.10
2018-09-04T21:01:09.906Z,70.60
2018-09-04T21:03:48.885Z,70.80
2018-09-04T21:06:27.702Z,70.70
2018-09-04T21:09:02.649Z,71.00
2018-09-04T21:11:30.429Z,71.20
2018-09-04T21:13:57.746Z,71.20
2018-09-04T21:16:25.108Z,71.20
2018-09-04T21:18:52.511Z,71.40
2018-09-04T21:21:20.705Z,71.60
2018-09-04T21:23:48.275Z,71.70
2018-09-04T21:26:15.583Z,71.60
2018-09-04T21:28:42.975Z,71.60
2018-09-04T21:31:10.323Z,71.60
2018-09-04T21:33:37.876Z,71.30
2018-09-04T21:36:05.328Z,71.60
2018-09-04T21:38:32.786Z,71.50
2018-09-04T21:41:00.248Z,71.60
2018-09-04T21:43:28.014Z,71.60
2018-09-04T21:45:55.455Z,71.60
2018-09-04T21:48:22.920Z,72.50
2018-09-04T21:50:50.706Z,71.60
2018-09-04T21:53:18.583Z,71.30
2018-09-04T21:55:46.259Z,71.60
2018-09-04T21:58:13.662Z,71.70
2018-09-04T22:00:41.142Z,71.60
2018-09-04T22:03:09.428Z,71.70
2018-09-04T22:05:37.943Z,71.70
2018-09-04T22:08:05.448Z,71.90
2018-09-04T22:10:32.854Z,71.90
2018-09-04T22:13:00.295Z,72.00
2018-09-04T22:15:27.726Z,72.10
2018-09-04T22:17:55.118Z,71.90
2018-09-04T22:20:22.753Z,71.90
2018-09-04T22:22:50.339Z,71.90
2018-09-04T22:25:17.743Z,71.90
2018-09-04T22:27:46.878Z,71.60
2018-09-04T22:30:15.334Z,71.70
2018-09-04T22:32:42.759Z,71.50
2018-09-04T22:35:10.170Z,71.40
2018-09-04T22:37:37.600Z,71.40
2018-09-04T22:40:05.520Z,71.40
2018-09-04T22:42:32.935Z,71.30
2018-09-04T22:45:00.340Z,71.20
2018-09-04T22:47:27.729Z,71.40
2018-09-04T22:50:00.839Z,71.30
2018-09-04T22:52:29.832Z,71.40
2018-09-04T22:54:59.897Z,71.30
2018-09-04T22:57:27.496Z,72.30
2018-09-04T22:59:54.887Z,71.60
2018-09-04T23:02:22.299Z,71.60
2018-09-04T23:04:50.163Z,71.60
2018-09-04T23:07:18.084Z,71.70
2018-09-04T23:09:45.515Z,71.60
2018-09-04T23:12:13.502Z,71.90
2018-09-04T23:14:40.941Z,72.00
2018-09-04T23:17:08.379Z,71.90
2018-09-04T23:19:35.840Z,72.20
2018-09-04T23:22:03.265Z,72.20
2018-09-04T23:24:30.687Z,72.00
2018-09-04T23:26:58.131Z,72.00
2018-09-04T23:29:25.541Z,72.20
2018-09-04T23:31:52.978Z,72.30
2018-09-04T23:34:20.416Z,72.20
2018-09-04T23:36:47.871Z,72.20
2018-09-04T23:39:15.336Z,72.40
2018-09-04T23:41:42.853Z,72.50
2018-09-04T23:44:10.250Z,72.50
2018-09-04T23:46:37.640Z,72.50
2018-09-04T23:49:05.870Z,72.60
2018-09-04T23:51:33.320Z,72.80
2018-09-04T23:54:00.745Z,72.90
2018-09-04T23:56:28.165Z,72.80
2018-09-04T23:58:55.557Z,73.10
